Time;durP1;ratioP1;P1;durP2;ratioP2;P2;SDS_P1;SDS_P2;PMS_P1;PMS_P2;Temp;Humidity;BMP_temperature;BMP_pressure;BME280_temperature;BME280_humidity;BME280_pressure;Samples;Min_cycle;Max_cycle;Signal;HPM_P1;HPM_P2
2022/05/07 00:00:45;;;;;;;42.35;39.50;;;;;;;8.78;100.00;101758.34;5115312;28;20391;-82
2022/05/07 00:03:16;;;;;;;44.95;42.00;;;;;;;8.76;100.00;101753.22;5116362;28;20130;-83
2022/05/07 00:05:43;;;;;;;44.20;40.88;;;;;;;8.85;100.00;101756.66;5115160;28;20048;-81
2022/05/07 00:08:15;;;;;;;42.83;39.75;;;;;;;8.84;100.00;101755.03;5115654;28;20453;-81
2022/05/07 00:10:54;;;;;;;;;;;;;;;8.82;100.00;101757.84;5115369;28;20036;-82
2022/05/07 00:13:24;;;;;;;43.85;40.65;;;;;;;8.84;100.00;101760.31;5111247;28;19920;-82
2022/05/07 00:18:44;;;;;;;45.15;42.42;;;;;;;8.95;100.00;101762.59;5115419;28;20548;-83
2022/05/07 00:21:14;;;;;;;48.47;45.37;;;;;;;8.98;100.00;101758.78;5115404;28;20047;-84
2022/05/07 00:23:43;;;;;;;43.95;41.10;;;;;;;8.83;100.00;101746.22;5106441;28;20044;-82
2022/05/07 00:26:16;;;;;;;41.65;38.72;;;;;;;8.80;100.00;101757.16;5115392;27;20039;-82
2022/05/07 00:28:47;;;;;;;46.78;43.65;;;;;;;8.69;100.00;101749.59;5115225;28;20472;-84
2022/05/07 00:31:20;;;;;;;42.60;39.97;;;;;;;8.80;100.00;101754.50;5105143;28;20080;-83
2022/05/07 00:33:53;;;;;;;49.67;46.45;;;;;;;8.66;100.00;101753.41;5115074;28;20047;-83
2022/05/07 00:36:34;;;;;;;42.13;38.88;;;;;;;8.60;100.00;101750.59;5108558;28;20043;-83
2022/05/07 00:39:14;;;;;;;46.75;43.10;;;;;;;8.55;100.00;101748.44;5113486;28;20108;-81
2022/05/07 00:41:44;;;;;;;45.33;41.97;;;;;;;8.64;100.00;101744.78;5113757;28;20498;-82
2022/05/07 00:44:24;;;;;;;43.85;41.05;;;;;;;8.81;100.00;101744.78;5114799;28;20053;-83
2022/05/07 00:46:53;;;;;;;45.85;42.53;;;;;;;8.72;100.00;101749.25;5114761;28;20047;-84
2022/05/07 00:49:36;;;;;;;50.60;46.70;;;;;;;7.92;100.00;101751.69;5115149;28;20468;-81
2022/05/07 00:52:07;;;;;;;;;;;;;;;7.99;100.00;101748.25;5111991;28;20112;-82
2022/05/07 00:54:36;;;;;;;42.08;38.67;;;;;;;7.78;100.00;101754.00;5115191;28;20055;-82
2022/05/07 00:57:15;;;;;;;58.03;53.70;;;;;;;7.53;100.00;101747.84;5114464;28;20051;-83
2022/05/07 00:59:46;;;;;;;40.92;37.50;;;;;;;7.29;100.00;101740.66;5110361;28;20052;-82
2022/05/07 01:02:19;;;;;;;39.97;36.67;;;;;;;7.23;100.00;101745.72;5113850;28;20052;-81
2022/05/07 01:04:56;;;;;;;38.65;35.15;;;;;;;7.24;100.00;101750.03;5114263;28;20048;-83
2022/05/07 01:07:34;;;;;;;51.72;48.13;;;;;;;7.17;100.00;101755.13;5110310;28;20083;-83
2022/05/07 01:10:04;;;;;;;52.78;48.80;;;;;;;7.33;100.00;101749.91;5103996;28;20539;-82
2022/05/07 01:12:42;;;;;;;56.03;51.90;;;;;;;7.02;100.00;101748.75;5112761;28;20059;-83
2022/05/07 01:15:16;;;;;;;52.35;48.42;;;;;;;7.09;100.00;101753.25;5114512;28;20058;-83
2022/05/07 01:17:53;;;;;;;46.67;43.17;;;;;;;6.96;100.00;101747.59;5112402;28;20048;-81
2022/05/07 01:20:29;;;;;;;47.35;43.85;;;;;;;6.80;100.00;101753.56;5114457;28;20051;-83
2022/05/07 01:23:02;;;;;;;45.15;41.42;;;;;;;6.68;100.00;101752.19;5114714;28;20044;-82
2022/05/07 01:25:32;;;;;;;49.78;45.80;;;;;;;6.63;100.00;101751.84;5114054;28;20039;-82
2022/05/07 01:28:06;;;;;;;46.22;42.53;;;;;;;6.70;100.00;101754.69;5113828;28;20063;-83
2022/05/07 01:30:37;;;;;;;43.47;39.88;;;;;;;6.26;100.00;101742.31;5110567;28;20149;-82
2022/05/07 01:33:12;;;;;;;46.20;41.65;;;;;;;5.74;100.00;101747.41;5108202;28;20040;-81
2022/05/07 01:35:39;;;;;;;47.00;43.20;;;;;;;5.92;100.00;101739.50;5109708;28;20437;-82
2022/05/07 01:38:24;;;;;;;44.45;40.85;;;;;;;6.40;100.00;101744.41;5110552;28;20058;-81
2022/05/07 01:40:56;;;;;;;45.55;41.80;;;;;;;6.25;100.00;101740.66;5109996;28;20464;-81
2022/05/07 01:43:27;;;;;;;49.13;45.33;;;;;;;6.43;100.00;101741.47;5110599;28;20120;-82
2022/05/07 01:48:09;;;;;;;53.38;49.08;;;;;;;6.20;100.00;101748.19;5108822;28;20047;-81
2022/05/07 01:49:01;;;;;;;61.15;56.50;;;;;;;6.30;100.00;101745.50;5106382;28;20071;-82
2022/05/07 01:51:35;;;;;;;48.50;44.45;;;;;;;6.24;100.00;101754.84;5108135;28;20472;-81
2022/05/07 01:54:29;;;;;;;44.67;41.08;;;;;;;5.88;100.00;101749.53;5110938;28;20097;-83
2022/05/07 01:57:00;;;;;;;48.40;44.90;;;;;;;6.40;100.00;101740.94;5109054;28;20373;-83
2022/05/07 01:59:33;;;;;;;48.10;44.47;;;;;;;5.78;100.00;101743.50;5110107;28;20120;-82
2022/05/07 02:01:59;;;;;;;;;;;;;;;5.84;100.00;101745.53;5201897;22;20062;-84
2022/05/07 02:04:26;;;;;;;46.22;42.08;;;;;;;5.24;100.00;101747.84;5091796;28;19973;-81
2022/05/07 02:06:55;;;;;;;47.55;44.03;;;;;;;5.54;100.00;101745.84;5093278;28;20077;-82
2022/05/07 02:09:25;;;;;;;50.08;46.08;;;;;;;5.67;100.00;101751.63;5090570;28;20051;-84
2022/05/07 02:12:11;;;;;;;49.85;45.70;;;;;;;5.69;100.00;101744.41;5094521;28;20040;-83
2022/05/07 02:14:39;;;;;;;48.65;44.53;;;;;;;5.78;100.00;101743.50;5096222;28;20204;-82
2022/05/07 02:17:09;;;;;;;49.05;45.15;;;;;;;5.50;100.00;101740.06;5092826;28;20066;-82
2022/05/07 02:19:36;;;;;;;52.13;47.95;;;;;;;5.62;100.00;101749.41;5094563;28;20048;-81
2022/05/07 02:22:13;;;;;;;49.40;45.50;;;;;;;5.81;100.00;101747.63;5095109;28;20161;-82
2022/05/07 02:24:47;;;;;;;45.35;41.78;;;;;;;5.82;100.00;101749.31;5095225;28;20047;-83
2022/05/07 02:27:23;;;;;;;45.95;42.35;;;;;;;5.83;100.00;101735.13;5096786;28;20052;-82
2022/05/07 02:30:03;;;;;;;43.58;40.17;;;;;;;5.59;100.00;101730.44;5094135;28;20448;-83
2022/05/07 02:32:34;;;;;;;44.72;40.97;;;;;;;5.51;100.00;101734.66;5092825;28;20109;-83
2022/05/07 02:35:08;;;;;;;47.15;43.15;;;;;;;5.55;100.00;101732.53;5091620;28;20044;-82
2022/05/07 02:37:37;;;;;;;46.33;42.70;;;;;;;5.31;100.00;101730.47;5096489;28;20046;-81
2022/05/07 02:40:21;;;;;;;47.00;43.30;;;;;;;5.39;100.00;101735.84;5095158;28;20594;-82
2022/05/07 02:42:49;;;;;;;48.03;44.08;;;;;;;5.18;100.00;101735.25;5095458;28;20039;-83
2022/05/07 02:45:30;;;;;;;45.00;41.30;;;;;;;5.20;100.00;101730.63;5096304;28;20476;-82
2022/05/07 02:48:17;;;;;;;47.05;43.30;;;;;;;5.03;100.00;101729.63;5095475;28;20503;-82
2022/05/07 02:51:02;;;;;;;44.13;40.33;;;;;;;5.14;100.00;101737.31;5096771;28;20490;-82
2022/05/07 02:53:35;;;;;;;42.78;39.15;;;;;;;5.13;100.00;101740.94;5091742;28;20113;-81
2022/05/07 02:56:20;;;;;;;43.35;39.92;;;;;;;5.15;100.00;101739.00;5096768;28;20065;-83
2022/05/07 02:58:53;;;;;;;42.28;38.75;;;;;;;5.07;100.00;101740.69;5085365;28;20055;-84
2022/05/07 03:01:20;;;;;;;40.88;37.08;;;;;;;5.31;100.00;101746.25;5096098;28;20125;-82
2022/05/07 03:03:47;;;;;;;39.88;36.65;;;;;;;5.36;100.00;101741.41;5080004;28;20483;-82
2022/05/07 03:06:27;;;;;;;41.30;37.90;;;;;;;5.27;100.00;101743.09;5091948;28;20145;-84
2022/05/07 03:08:55;;;;;;;37.03;33.92;;;;;;;5.26;100.00;101737.97;5096463;28;20117;-82
2022/05/07 03:11:36;;;;;;;37.80;34.60;;;;;;;5.41;100.00;101736.50;5096260;28;20054;-82
2022/05/07 03:14:38;;;;;;;36.78;33.75;;;;;;;5.12;100.00;101741.09;5096331;28;20046;-83
2022/05/07 03:17:07;;;;;;;36.72;33.67;;;;;;;4.79;100.00;101735.38;5093504;28;20158;-83
2022/05/07 03:19:46;;;;;;;36.83;33.92;;;;;;;5.30;100.00;101741.16;5080652;28;20059;-82
2022/05/07 03:22:26;;;;;;;37.58;34.33;;;;;;;5.28;100.00;101750.00;5092536;28;20048;-83
2022/05/07 03:25:04;;;;;;;35.65;32.70;;;;;;;4.65;100.00;101744.56;5076270;28;20117;-83
2022/05/07 03:27:33;;;;;;;36.13;32.75;;;;;;;4.53;100.00;101740.41;5089545;28;20055;-85
2022/05/07 03:30:12;;;;;;;37.78;34.65;;;;;;;4.64;100.00;101742.06;5094938;28;20423;-82
2022/05/07 03:32:43;;;;;;;40.15;36.60;;;;;;;5.13;100.00;101748.84;5084616;28;20483;-82
2022/05/07 03:35:14;;;;;;;39.08;35.17;;;;;;;5.17;100.00;101752.00;5079232;28;20047;-84
2022/05/07 03:37:49;;;;;;;35.47;32.38;;;;;;;5.23;100.00;101756.69;5086008;28;20048;-82
2022/05/07 03:40:27;;;;;;;37.88;34.53;;;;;;;5.66;100.00;101755.25;5075682;28;20040;-83
2022/05/07 03:43:10;;;;;;;43.42;39.35;;;;;;;5.24;100.00;101753.09;5096611;28;20040;-83
2022/05/07 03:45:43;;;;;;;35.90;32.90;;;;;;;5.56;100.00;101757.91;5095564;28;20130;-84
2022/05/07 03:48:16;;;;;;;41.80;37.38;;;;;;;5.94;100.00;101759.50;5090451;28;20101;-83
2022/05/07 03:50:54;;;;;;;33.85;31.15;;;;;;;5.47;100.00;101754.34;5087068;28;20456;-83
2022/05/07 03:53:31;;;;;;;35.63;32.55;;;;;;;6.03;100.00;101756.97;5083356;28;20113;-83
2022/05/07 03:56:09;;;;;;;35.33;32.53;;;;;;;6.16;100.00;101760.84;5095317;28;20144;-82
2022/05/07 03:58:52;;;;;;;35.33;32.25;;;;;;;6.34;100.00;101770.59;5089368;28;20113;-83
2022/05/07 04:01:21;;;;;;;38.95;35.50;;;;;;;6.56;100.00;101759.53;5093241;28;20073;-83
2022/05/07 04:03:58;;;;;;;37.47;34.25;;;;;;;6.58;100.00;101764.66;5075656;28;20515;-82
2022/05/07 04:06:29;;;;;;;37.72;34.55;;;;;;;6.70;100.00;101759.97;5063887;28;20045;-83
2022/05/07 04:09:04;;;;;;;40.90;37.03;;;;;;;7.04;100.00;101771.38;5074856;28;20048;-83
2022/05/07 04:11:41;;;;;;;39.40;35.75;;;;;;;7.32;100.00;101779.97;5065237;28;20045;-83
2022/05/07 04:14:17;;;;;;;42.60;38.35;;;;;;;7.36;100.00;101777.81;5067431;28;20056;-82
2022/05/07 04:17:19;;;;;;;40.38;36.53;;;;;;;7.66;100.00;101781.75;5070585;28;20097;-83
2022/05/07 04:19:49;;;;;;;37.60;34.38;;;;;;;7.75;100.00;101779.94;5076831;28;20106;-84
2022/05/07 04:22:21;;;;;;;37.83;34.30;;;;;;;8.12;100.00;101782.16;5071151;28;20049;-84
2022/05/07 04:24:50;;;;;;;38.40;35.22;;;;;;;8.23;100.00;101775.75;5057451;28;20049;-83
2022/05/07 04:27:22;;;;;;;35.65;32.45;;;;;;;8.15;100.00;101770.44;5074117;28;20056;-82
2022/05/07 04:30:11;;;;;;;35.00;32.20;;;;;;;7.77;100.00;101781.41;5071539;28;20106;-83
2022/05/07 04:36:01;;;;;;;34.55;31.27;;;;;;;8.36;100.00;101781.34;5070594;28;20116;-85
2022/05/07 04:38:36;;;;;;;33.00;30.25;;;;;;;8.52;100.00;101772.59;5075509;28;20052;-83
2022/05/07 04:41:07;;;;;;;34.63;31.50;;;;;;;8.63;100.00;101782.88;5065360;28;20055;-82
2022/05/07 04:43:38;;;;;;;34.20;31.50;;;;;;;8.71;100.00;101780.22;5073103;28;20045;-82
2022/05/07 04:49:27;;;;;;;33.33;31.05;;;;;;;8.64;100.00;101783.69;5061770;28;20092;-82
2022/05/07 04:51:57;;;;;;;34.17;31.65;;;;;;;8.54;100.00;101783.03;5074227;28;20105;-83
2022/05/07 04:54:24;;;;;;;37.15;33.83;;;;;;;8.54;100.00;101793.63;5063480;28;20051;-84
2022/05/07 04:57:03;;;;;;;34.38;31.40;;;;;;;8.52;100.00;101788.50;5071973;28;20048;-82
2022/05/07 04:59:31;;;;;;;36.17;32.67;;;;;;;8.54;100.00;101804.22;5066223;28;20548;-84
2022/05/07 05:02:03;;;;;;;32.97;30.08;;;;;;;9.09;100.00;101798.19;5070842;28;20104;-83
2022/05/07 05:04:45;;;;;;;34.03;31.48;;;;;;;9.35;100.00;101797.94;5090417;28;20145;-83
2022/05/07 05:07:17;;;;;;;35.63;32.83;;;;;;;9.52;100.00;101796.88;5091779;28;20040;-83
2022/05/07 05:09:51;;;;;;;34.03;31.35;;;;;;;9.68;100.00;101803.09;5095177;28;20454;-84
2022/05/07 05:12:22;;;;;;;34.75;32.13;;;;;;;9.78;100.00;101801.06;5096108;28;20044;-83
2022/05/07 05:15:03;;;;;;;32.05;29.55;;;;;;;9.93;100.00;101799.31;5094823;28;20078;-84
2022/05/07 05:17:46;;;;;;;32.10;29.83;;;;;;;10.42;100.00;101803.50;5095178;28;20036;-84
2022/05/07 05:20:38;;;;;;;31.92;29.52;;;;;;;10.30;100.00;101801.25;5087213;28;20109;-83
2022/05/07 05:23:16;;;;;;;32.55;30.05;;;;;;;10.21;100.00;101814.72;5095472;28;20464;-83
2022/05/07 05:25:45;;;;;;;33.65;30.92;;;;;;;10.54;100.00;101799.41;5094715;28;20105;-83
2022/05/07 05:28:25;;;;;;;31.67;29.45;;;;;;;10.95;100.00;101802.53;5082107;28;20044;-81
2022/05/07 05:30:55;;;;;;;33.40;30.90;;;;;;;11.00;100.00;101799.28;5091335;28;20439;-82
2022/05/07 05:33:29;;;;;;;33.53;31.13;;;;;;;11.11;100.00;101803.34;5094156;28;20043;-83
2022/05/07 05:36:19;;;;;;;32.85;30.48;;;;;;;11.40;100.00;101799.84;5089608;28;20044;-83
2022/05/07 05:38:59;;;;;;;33.22;30.63;;;;;;;11.50;100.00;101796.88;5090190;28;20058;-83
2022/05/07 05:41:33;;;;;;;33.25;30.83;;;;;;;12.69;100.00;101794.66;5080596;28;20072;-80
2022/05/07 05:44:00;;;;;;;34.25;31.42;;;;;;;12.57;100.00;101803.16;5086169;28;20057;-83
2022/05/07 05:46:28;;;;;;;31.85;29.13;;;;;;;12.41;100.00;101799.97;5085292;28;20449;-83
2022/05/07 05:49:23;;;;;;;32.05;29.85;;;;;;;12.85;100.00;101794.34;5103795;28;20078;-82
2022/05/07 05:52:01;;;;;;;30.45;27.98;;;;;;;12.65;100.00;101793.38;5086131;28;20392;-83
2022/05/07 05:54:33;;;;;;;31.23;28.85;;;;;;;13.18;100.00;101788.41;5085474;28;20055;-82
2022/05/07 05:57:03;;;;;;;31.88;29.42;;;;;;;13.09;100.00;101797.59;5081057;28;20052;-83
2022/05/07 05:59:41;;;;;;;31.48;29.23;;;;;;;13.44;100.00;101798.44;5081271;28;20045;-83
2022/05/07 06:02:08;;;;;;;31.05;28.77;;;;;;;13.47;100.00;101798.84;5087218;28;20509;-83
2022/05/07 06:04:39;;;;;;;30.13;27.98;;;;;;;14.04;100.00;101793.25;5093110;28;20054;-85
2022/05/07 06:07:13;;;;;;;32.17;29.67;;;;;;;14.27;100.00;101799.06;5088060;28;20048;-83
2022/05/07 06:09:46;;;;;;;30.55;28.20;;;;;;;14.44;100.00;101796.81;5097839;28;20476;-83
2022/05/07 06:12:30;;;;;;;31.77;29.35;;;;;;;14.68;100.00;101786.56;5091549;28;20118;-84
2022/05/07 06:15:11;;;;;;;;;;;;;;;;;;;;;
2022/05/07 06:17:54;;;;;;;31.48;29.25;;;;;;;15.36;100.00;101789.69;5099760;28;20123;-85
2022/05/07 06:20:28;;;;;;;31.55;29.30;;;;;;;15.53;100.00;101800.75;5081205;28;20049;-82
2022/05/07 06:23:00;;;;;;;30.80;28.70;;;;;;;15.08;100.00;101793.47;5102102;28;20123;-82
2022/05/07 06:28:42;;;;;;;31.27;28.95;;;;;;;15.77;100.00;101793.88;5089638;28;20110;-83
2022/05/07 06:31:17;;;;;;;30.23;28.23;;;;;;;15.97;100.00;101793.75;5083158;28;20139;-83
2022/05/07 06:33:44;;;;;;;31.08;29.17;;;;;;;16.06;88.28;101805.03;5103251;28;20074;-84
2022/05/07 06:36:12;;;;;;;31.08;28.83;;;;;;;16.31;78.76;101797.03;5098317;28;20063;-83
2022/05/07 06:39:04;;;;;;;32.40;29.75;;;;;;;16.23;79.28;101798.13;5099703;28;20047;-85
2022/05/07 06:41:54;;;;;;;32.03;29.70;;;;;;;16.33;81.58;101800.31;5098559;28;20510;-83
2022/05/07 06:44:22;;;;;;;31.92;29.55;;;;;;;16.58;67.77;101795.81;5083561;28;20184;-85
2022/05/07 06:46:53;;;;;;;31.38;29.10;;;;;;;17.02;70.43;101804.69;5082583;28;20036;-83
2022/05/07 06:49:23;;;;;;;31.50;29.25;;;;;;;16.99;77.26;101799.75;5087277;28;20040;-82
2022/05/07 06:51:57;;;;;;;30.88;28.80;;;;;;;17.01;80.64;101788.81;5096708;28;20143;-82
2022/05/07 06:54:33;;;;;;;31.98;29.58;;;;;;;17.32;67.15;101791.34;5085633;28;20056;-83
2022/05/07 06:57:04;;;;;;;34.60;31.58;;;;;;;17.07;60.85;101794.13;5091426;28;20079;-83
2022/05/07 06:59:32;;;;;;;36.47;31.90;;;;;;;16.94;60.13;101803.13;5095392;28;20547;-82
2022/05/07 07:01:59;;;;;;;33.42;30.55;;;;;;;17.14;60.87;101813.63;5091792;28;20077;-82
2022/05/07 07:04:26;;;;;;;31.00;28.73;;;;;;;17.12;61.73;101804.97;5090525;28;20051;-83
2022/05/07 07:06:53;;;;;;;31.33;28.85;;;;;;;16.90;61.24;101815.31;5092550;28;20055;-83
2022/05/07 07:09:20;;;;;;;33.15;30.58;;;;;;;16.74;60.83;101813.19;5086352;28;20129;-81
2022/05/07 07:11:48;;;;;;;33.85;31.13;;;;;;;16.79;60.89;101813.38;5080588;28;20052;-80
2022/05/07 07:14:15;;;;;;;32.90;29.83;;;;;;;16.88;60.73;101812.06;5081619;28;20052;-82
2022/05/07 07:16:42;;;;;;;34.45;31.33;;;;;;;17.18;63.82;101814.00;5093222;28;20052;-81
2022/05/07 07:19:10;;;;;;;31.50;29.50;;;;;;;17.35;60.22;101806.19;5096622;28;20044;-81
2022/05/07 07:21:37;;;;;;;34.40;30.83;;;;;;;17.67;59.47;101820.28;5086260;28;20077;-82
2022/05/07 07:24:05;;;;;;;31.73;29.48;;;;;;;17.75;60.87;101811.88;5086245;28;20120;-83
2022/05/07 07:26:33;;;;;;;32.58;30.27;;;;;;;17.92;59.89;101814.78;5079937;28;20125;-81
2022/05/07 07:29:02;;;;;;;32.72;30.63;;;;;;;17.80;58.56;101817.44;5086257;28;20055;-81
2022/05/07 07:31:37;;;;;;;33.33;30.80;;;;;;;17.61;55.27;101811.25;5095827;28;20055;-82
2022/05/07 07:34:06;;;;;;;37.85;34.30;;;;;;;17.44;54.96;101802.16;5085059;28;20066;-83
2022/05/07 07:36:37;;;;;;;31.75;29.48;;;;;;;17.51;57.12;101812.81;5079115;28;20530;-82
2022/05/07 07:39:16;;;;;;;32.25;30.13;;;;;;;17.65;55.99;101808.94;5086499;28;20157;-82
2022/05/07 07:41:45;;;;;;;32.72;30.42;;;;;;;17.73;57.76;101803.25;5087261;28;20051;-83
2022/05/07 07:44:14;;;;;;;32.88;30.67;;;;;;;17.76;56.26;101807.31;5096156;28;20048;-83
2022/05/07 07:49:26;;;;;;;34.97;32.50;;;;;;;17.38;57.30;101800.38;5094092;28;20101;-81
2022/05/07 07:51:56;;;;;;;32.38;29.70;;;;;;;17.84;57.42;101809.72;5096021;28;20471;-83
2022/05/07 07:54:23;;;;;;;33.20;30.70;;;;;;;17.72;56.75;101811.53;5096429;28;20044;-83
2022/05/07 07:56:51;;;;;;;33.30;30.58;;;;;;;17.96;56.93;101807.91;5091266;28;20099;-83
2022/05/07 07:59:21;;;;;;;30.88;28.88;;;;;;;18.18;56.21;101804.69;5090408;28;20121;-83
2022/05/07 08:01:48;;;;;;;31.23;28.88;;;;;;;18.26;54.68;101799.00;5083655;28;20055;-82
2022/05/07 08:04:26;;;;;;;31.83;29.40;;;;;;;18.26;55.94;101805.19;5092113;28;20075;-84
2022/05/07 08:12:33;;;;;;;35.15;32.45;;;;;;;17.96;61.02;101791.78;5088018;28;19931;-81
2022/05/07 08:15:03;;;;;;;33.83;31.23;;;;;;;18.18;53.29;101791.25;5096094;28;20121;-82
2022/05/07 08:17:30;;;;;;;33.65;31.05;;;;;;;18.39;60.04;101796.06;5097436;28;20078;-84
2022/05/07 08:20:15;;;;;;;35.95;33.05;;;;;;;18.73;54.93;101794.53;5099352;28;20105;-85
2022/05/07 08:22:50;;;;;;;34.30;31.63;;;;;;;18.72;54.36;101800.09;5092932;28;20109;-84
2022/05/07 08:25:38;;;;;;;33.90;31.70;;;;;;;18.30;51.33;101800.16;5097918;28;20109;-85
2022/05/07 08:28:11;;;;;;;34.53;32.03;;;;;;;17.83;52.90;101792.78;5092604;28;20051;-84
2022/05/07 08:30:39;;;;;;;34.75;32.05;;;;;;;18.36;52.43;101801.09;5097481;28;20047;-83
2022/05/07 08:33:06;;;;;;;35.42;32.03;;;;;;;18.03;53.58;101799.75;5099627;28;20060;-84
2022/05/07 08:35:36;;;;;;;38.25;34.13;;;;;;;17.99;52.53;101804.75;5085773;28;20044;-83
2022/05/07 08:38:19;;;;;;;35.38;32.58;;;;;;;17.81;50.63;101802.13;5084050;28;20044;-86
2022/05/07 08:40:49;;;;;;;;;;;;;;;18.11;51.84;101814.75;5098727;28;20094;-84
2022/05/07 08:43:22;;;;;;;34.63;31.83;;;;;;;18.01;52.13;101801.84;5077927;28;20257;-83
2022/05/07 08:45:52;;;;;;;35.00;32.38;;;;;;;18.20;49.57;101806.09;5077602;28;20049;-82
2022/05/07 08:48:30;;;;;;;43.40;39.17;;;;;;;18.86;49.93;101806.09;5091494;28;20044;-85
2022/05/07 08:51:18;;;;;;;60.92;43.67;;;;;;;19.18;49.68;101796.59;5094906;28;20109;-84
2022/05/07 08:53:48;;;;;;;63.10;43.78;;;;;;;18.97;50.21;101800.72;5090572;28;20047;-83
2022/05/07 08:56:18;;;;;;;51.72;40.72;;;;;;;19.98;49.39;101802.19;5089379;28;20052;-83
2022/05/07 08:58:54;;;;;;;32.45;29.80;;;;;;;19.82;50.27;101798.41;5094665;28;20052;-82
2022/05/07 09:01:25;;;;;;;37.78;34.33;;;;;;;19.85;47.85;101789.84;5085214;28;20055;-81
2022/05/07 09:04:09;;;;;;;35.35;32.13;;;;;;;20.11;49.42;101807.28;5073766;28;20049;-81
2022/05/07 09:06:41;;;;;;;85.35;52.47;;;;;;;19.85;48.83;101795.22;5073998;28;20052;-83
2022/05/07 09:09:09;;;;;;;32.67;29.50;;;;;;;20.16;46.75;101790.38;5064442;28;20056;-82
2022/05/07 09:11:43;;;;;;;37.08;31.98;;;;;;;20.47;47.78;101787.09;5068565;28;20060;-81
2022/05/07 09:14:14;;;;;;;35.55;32.38;;;;;;;20.20;47.03;101805.81;5067396;28;20044;-83
2022/05/07 09:16:45;;;;;;;41.80;37.55;;;;;;;19.66;46.72;101794.59;5079385;28;20444;-84
2022/05/07 09:19:21;;;;;;;32.65;30.02;;;;;;;20.03;46.38;101804.97;5070979;28;20239;-82
2022/05/07 09:21:48;;;;;;;33.38;30.70;;;;;;;19.53;48.45;101809.13;5077950;28;20449;-83
2022/05/07 09:24:15;;;;;;;34.70;31.90;;;;;;;19.68;45.53;101809.47;5076024;28;20121;-82
2022/05/07 09:26:47;;;;;;;34.50;31.60;;;;;;;19.66;44.63;101808.88;5081450;28;20053;-83
2022/05/07 09:29:18;;;;;;;31.40;28.63;;;;;;;19.52;47.61;101798.63;5077902;28;20062;-82
2022/05/07 09:31:48;;;;;;;31.27;28.67;;;;;;;19.06;45.12;101797.63;5071955;28;20085;-83
2022/05/07 09:37:14;;;;;;;32.70;29.80;;;;;;;19.48;46.56;101794.75;5079157;28;20047;-83
2022/05/07 09:39:46;;;;;;;44.22;41.05;;;;;;;19.71;46.36;101802.78;5078478;28;20080;-82
2022/05/07 09:42:16;;;;;;;44.65;41.40;;;;;;;19.51;44.10;101800.47;5079285;28;20040;-84
2022/05/07 09:44:50;;;;;;;43.95;40.88;;;;;;;19.86;44.68;101799.56;5072542;28;20049;-82
2022/05/07 09:47:25;;;;;;;33.42;30.45;;;;;;;19.96;44.85;101799.72;5066181;28;20049;-83
2022/05/07 09:58:23;;;;;;;30.83;28.83;;;;;;;19.80;51.55;101774.38;5015070;28;20052;-83
2022/05/07 10:01:29;;;;;;;33.88;30.15;;;;;;;20.33;45.22;101778.53;5057985;28;20116;-84
2022/05/07 10:04:29;;;;;;;33.25;30.42;;;;;;;20.10;44.70;101774.09;5067387;28;20106;-84
2022/05/07 10:07:25;;;;;;;32.63;29.92;;;;;;;20.52;46.10;101775.59;5057373;28;20041;-83
2022/05/07 10:10:16;;;;;;;30.58;28.23;;;;;;;20.19;47.58;101771.00;5074698;28;20109;-84
2022/05/07 10:12:45;;;;;;;31.77;28.98;;;;;;;20.58;45.72;101766.53;5072483;28;20040;-82
2022/05/07 10:15:16;;;;;;;30.73;28.52;;;;;;;20.44;45.90;101760.59;5080848;28;20127;-84
2022/05/07 10:18:02;;;;;;;31.67;29.27;;;;;;;20.65;44.56;101750.97;5078922;28;20076;-85
2022/05/07 10:20:41;;;;;;;34.13;31.17;;;;;;;20.68;48.93;101755.88;5078189;28;20063;-81
2022/05/07 10:23:16;;;;;;;32.10;29.88;;;;;;;20.75;44.27;101752.97;5069425;28;20048;-81
2022/05/07 10:26:04;;;;;;;32.38;29.88;;;;;;;20.48;46.79;101748.25;5071627;28;20044;-83
2022/05/07 10:28:42;;;;;;;33.20;30.20;;;;;;;20.67;45.52;101746.16;5066158;28;20056;-82
2022/05/07 10:31:21;;;;;;;31.83;29.30;;;;;;;20.43;49.57;101740.09;5071105;28;20122;-84
2022/05/07 10:33:49;;;;;;;33.08;30.25;;;;;;;20.53;48.39;101734.88;5061870;28;20046;-85
2022/05/07 10:36:20;;;;;;;31.08;28.52;;;;;;;21.30;47.30;101745.84;5073630;28;20057;-83
2022/05/07 10:38:55;;;;;;;31.20;28.83;;;;;;;21.30;45.36;101729.63;5076559;28;20044;-83
2022/05/07 10:41:26;;;;;;;31.60;29.05;;;;;;;21.47;48.55;101733.09;5077198;28;20483;-82
2022/05/07 10:44:06;;;;;;;30.83;28.13;;;;;;;21.58;45.87;101729.44;5078542;28;20052;-82
2022/05/07 10:46:45;;;;;;;33.47;30.20;;;;;;;21.35;48.50;101730.50;5062138;28;20063;-84
2022/05/07 10:49:18;;;;;;;32.45;30.15;;;;;;;21.53;46.74;101725.88;5073127;28;20057;-84
2022/05/07 10:51:51;;;;;;;31.65;29.30;;;;;;;21.69;45.74;101716.81;5075530;28;20074;-82
2022/05/07 10:54:42;;;;;;;32.60;29.92;;;;;;;21.66;46.07;101726.25;5076454;28;20143;-84
2022/05/07 10:57:10;;;;;;;31.13;28.63;;;;;;;21.44;46.10;101715.50;5072151;28;20044;-83
2022/05/07 10:59:38;;;;;;;32.22;29.83;;;;;;;21.29;46.89;101715.31;5066343;28;20439;-83
2022/05/07 11:02:07;;;;;;;30.10;27.90;;;;;;;21.84;47.16;101708.03;5085163;28;20048;-83
2022/05/07 11:04:44;;;;;;;32.20;29.45;;;;;;;21.62;47.35;101705.41;5097828;28;20050;-83
2022/05/07 11:07:22;;;;;;;30.42;28.13;;;;;;;21.82;47.76;101711.00;5090803;28;20052;-82
2022/05/07 11:09:53;;;;;;;31.13;28.63;;;;;;;22.40;43.23;101712.00;5096040;28;20070;-83
2022/05/07 11:12:22;;;;;;;30.67;28.45;;;;;;;22.03;42.64;101711.16;5097933;28;20472;-81
2022/05/07 11:14:51;;;;;;;30.05;27.70;;;;;;;22.60;42.35;101711.34;5097643;28;20135;-82
2022/05/07 11:17:29;;;;;;;29.80;27.27;;;;;;;21.71;42.50;101704.69;5096518;28;20448;-84
2022/05/07 11:19:56;;;;;;;29.85;27.63;;;;;;;21.57;42.39;101703.47;5097104;28;20127;-84
2022/05/07 11:22:32;;;;;;;29.70;27.17;;;;;;;21.93;41.69;101693.78;5095580;28;20068;-82
2022/05/07 11:25:05;;;;;;;28.67;26.63;;;;;;;21.98;41.94;101697.63;5079905;28;20052;-84
2022/05/07 11:27:39;;;;;;;28.23;25.88;;;;;;;21.79;42.04;101708.81;5096580;28;20105;-85
2022/05/07 11:30:19;;;;;;;29.45;27.20;;;;;;;22.04;41.50;101702.00;5085931;28;20048;-84
2022/05/07 11:32:47;;;;;;;32.13;29.88;;;;;;;22.07;42.43;101693.34;5099337;28;20052;-84
2022/05/07 11:35:15;;;;;;;29.48;27.20;;;;;;;22.32;44.06;101700.84;5094057;28;20086;-84
2022/05/07 11:37:47;;;;;;;28.17;26.15;;;;;;;21.83;42.75;101684.78;5091856;28;20044;-84
2022/05/07 11:40:15;;;;;;;29.85;27.17;;;;;;;22.35;42.60;101690.31;5092814;28;20063;-83
2022/05/07 11:45:47;;;;;;;31.58;29.38;;;;;;;23.05;40.80;101672.00;5076396;28;20055;-85
2022/05/07 11:48:25;;;;;;;30.70;28.30;;;;;;;22.38;40.75;101672.75;5094549;28;20052;-85
2022/05/07 11:50:55;;;;;;;30.83;28.15;;;;;;;23.08;41.39;101666.03;5099346;28;20467;-84
2022/05/07 11:53:48;;;;;;;30.48;28.08;;;;;;;22.81;39.14;101663.50;5095047;28;20048;-85
2022/05/07 11:56:19;;;;;;;28.70;26.60;;;;;;;21.94;43.44;101664.88;5094642;28;20052;-83
2022/05/07 11:58:54;;;;;;;28.80;26.80;;;;;;;22.32;42.00;101666.50;5083122;28;20051;-85
2022/05/07 12:01:24;;;;;;;29.52;27.40;;;;;;;22.37;43.64;101657.59;5095814;28;20048;-85
2022/05/07 12:03:53;;;;;;;30.75;28.38;;;;;;;22.43;47.51;101647.63;5091486;28;20053;-85
2022/05/07 12:06:54;;;;;;;31.45;29.02;;;;;;;23.08;42.50;101649.78;5087012;28;20059;-87
2022/05/07 12:09:21;;;;;;;31.05;28.48;;;;;;;23.19;38.29;101652.53;5098511;28;20065;-85
2022/05/07 12:12:11;;;;;;;30.13;27.73;;;;;;;22.12;41.02;101639.31;5100265;28;20105;-86
2022/05/07 12:15:12;;;;;;;30.67;27.95;;;;;;;22.34;45.17;101652.72;5095455;28;20054;-84
2022/05/07 12:18:19;;;;;;;29.23;26.95;;;;;;;22.21;40.12;101637.75;5096967;28;20404;-85
2022/05/07 12:20:47;;;;;;;29.75;27.45;;;;;;;22.69;42.96;101626.88;5095469;28;20086;-83